FW1382 Weather Reports


Display with metric or nautical units.
time (UTC)temp
F
wind
direction
speed
MPH
gust
MPH
rain 1hr
in
rain 24hr
in
rain mn
in
humidity
%
barometer
mb
20210123011706 49 17 1.0 4.0 0.00 0.02 0.02 92 1018.5
20210123010022 49 25 3.0 5.0 0.00 0.02 0.02 92 1018.4
20210123004612 49 35 2.0 5.0 0.00 0.02 0.02 92 1018.1
20210123003052 49 27 3.0 5.0 0.00 0.02 0.02 92 1017.9
20210123001620 49 360 3.0 5.0 0.00 0.02 0.02 93 1018.0
20210123000126 49 344 3.0 6.0 0.00 0.02 0.02 93 1018.0
20210122234634 49 355 3.0 6.0 0.00 0.02 0.02 93 1017.8
20210122233134 50 5 3.0 4.0 0.00 0.02 0.02 93 1017.6
20210122230032 49 19 3.0 6.0 0.00 0.02 0.02 94 1017.3
20210122224532 49 9 3.0 8.0 0.00 0.03 0.02 94 1017.2
20210122223110 49 20 4.0 9.0 0.00 0.03 0.02 95 1017.1
20210122221559 49 43 3.0 9.0 0.00 0.03 0.02 95 1016.9
20210122220045 49 355 3.0 9.0 0.00 0.03 0.02 95 1016.7
20210122214605 49 35 3.0 6.0 0.00 0.05 0.02 95 1016.5
20210122213241 49 349 4.0 9.0 0.01 0.05 0.02 95 1016.4
20210122211646 49 5 3.0 9.0 0.01 0.05 0.02 95 1016.2
20210122204517 49 5 4.0 9.0 0.01 0.06 0.02 95 1016.0
20210122203030 49 355 5.0 9.0 0.00 0.05 0.01 95 1016.1
20210122201541 49 332 5.0 10.0 0.00 0.05 0.01 95 1016.0
20210122200025 49 39 4.0 10.0 0.00 0.05 0.01 95 1016.0
20210122194630 49 9 6.0 10.0 0.00 0.08 0.01 95 1016.0
20210122193106 49 19 4.0 8.0 0.00 0.08 0.01 95 1016.1
20210122191635 49 22 4.0 9.0 0.00 0.08 0.01 95 1016.3
20210122190108 49 14 3.0 6.0 0.00 0.08 0.01 96 1016.4
20210122184654 49 15 6.0 10.0 0.00 0.08 0.01 95 1016.6
20210122183106 49 13 5.0 8.0 0.00 0.08 0.01 96 1016.8
20210122181549 50 11 4.0 8.0 0.00 0.08 0.01 95 1017.0
20210122180255 49 11 6.0 10.0 0.00 0.08 0.01 96 1016.9
20210122174558 49 52 5.0 9.0 0.00 0.08 0.01 95 1017.0
20210122173108 50 21 3.0 8.0 0.00 0.08 0.01 95 1017.2
20210122171533 50 37 3.0 6.0 0.00 0.08 0.01 96 1017.5
20210122170020 50 55 4.0 8.0 0.00 0.08 0.01 95 1017.2
20210122164632 50 43 2.0 6.0 0.00 0.08 0.01 96 1017.1
20210122163105 49 32 3.0 6.0 0.01 0.08 0.01 96 1017.4
20210122161747 49 64 2.0 5.0 0.01 0.08 0.01 96 1017.0
20210122154524 49 49 2.0 5.0 0.01 0.08 0.01 95 1016.6
20210122153032 49 42 3.0 8.0 0.00 0.07 0.00 95 1016.4
20210122151643 49 30 3.0 6.0 0.00 0.07 0.00 95 1016.1
20210122150147 49 107 2.0 9.0 0.00 0.07 0.00 95 1016.1
20210122144706 49 67 4.0 9.0 0.00 0.07 0.00 95 1015.8
20210122134537 50 29 4.0 9.0 0.00 0.07 0.00 95 1014.8
20210122133103 50 35 3.0 6.0 0.00 0.07 0.00 95 1014.7
20210122130034 50 25 1.0 4.0 0.00 0.07 0.00 95 1014.4
20210122124550 50 26 2.0 3.0 0.00 0.07 0.00 94 1014.5
20210122123304 50 51 2.0 4.0 0.00 0.07 0.00 94 1013.9
20210122121626 50 36 0.0 0.0 0.00 0.07 0.00 94 1014.4
20210122120143 50 36 0.0 0.0 0.00 0.07 0.00 94 1013.9
20210122113053 50 36 0.0 0.0 0.00 0.07 0.00 94 1013.3
20210122104633 51 67 0.0 3.0 0.00 0.07 0.00 94 1012.5
20210122103035 52 77 1.0 6.0 0.00 0.07 0.00 94 1012.2
20210122101613 52 111 4.0 8.0 0.00 0.07 0.00 94 1012.1
20210122100134 51 161 0.0 2.0 0.00 0.07 0.00 93 1012.9
20210122094713 51 161 0.0 5.0 0.00 0.07 0.00 93 1013.2
20210122084543 52 5 2.0 5.0 0.00 0.07 0.00 92 1013.2
20210122083208 53 125 0.0 1.0 0.00 0.07 0.00 92 1012.8
20210122081537 53 127 1.0 3.0 0.00 0.07 0.00 92 1012.5
20210122080125 53 119 1.0 6.0 0.00 0.07 0.00 91 1012.4
20210122074709 53 148 0.0 3.0 0.00 0.07 0.00 91 1012.5
20210122070032 53 281 2.0 6.0 0.00 0.07 0.00 89 1013.0
20210122064647 54 22 0.0 2.0 0.00 0.07 0.00 88 1012.9
20210122061501 55 22 0.0 2.0 0.00 0.07 0.00 86 1013.1
20210122060057 56 265 1.0 5.0 0.00 0.07 0.00 86 1013.0
20210122054523 56 218 5.0 13.0 0.00 0.07 0.07 86 1013.2
20210122053118 56 248 8.0 13.0 0.00 0.07 0.07 86 1013.4
20210122051618 56 224 6.0 11.0 0.00 0.07 0.07 86 1013.3
20210122050210 56 220 7.0 12.0 0.00 0.07 0.07 87 1013.0
20210122044601 55 238 6.0 11.0 0.00 0.07 0.07 87 1013.2
20210122043058 55 215 5.0 8.0 0.00 0.07 0.07 87 1013.2
20210122041707 56 202 4.0 10.0 0.00 0.07 0.07 87 1013.1
20210122040047 56 219 5.0 9.0 0.00 0.07 0.07 87 1013.0
20210122034558 55 214 6.0 10.0 0.00 0.07 0.07 87 1013.0
20210122033142 55 234 7.0 12.0 0.00 0.07 0.07 88 1013.0
20210122031618 55 227 6.0 11.0 0.00 0.07 0.07 88 1013.0
20210122030206 55 189 6.0 10.0 0.00 0.07 0.07 89 1012.9
20210122024631 55 219 6.0 10.0 0.00 0.07 0.07 91 1013.0
20210122020108 54 238 5.0 8.0 0.00 0.07 0.07 92 1013.3